sensor_id;sensor_type;location;lat;lon;timestamp;P1;durP1;ratioP1;P2;durP2;ratioP2
79365;SDS011;68833;53.160;17.920;2024-01-27T00:00:56;8.40;;;1.60;;
79365;SDS011;68833;53.160;17.920;2024-01-27T00:03:43;6.80;;;1.90;;
79365;SDS011;68833;53.160;17.920;2024-01-27T00:06:14;4.80;;;1.60;;
79365;SDS011;68833;53.160;17.920;2024-01-27T00:08:41;10.40;;;2.30;;
79365;SDS011;68833;53.160;17.920;2024-01-27T00:11:10;8.20;;;1.80;;
79365;SDS011;68833;53.160;17.920;2024-01-27T00:13:38;10.40;;;1.80;;
79365;SDS011;68833;53.160;17.920;2024-01-27T00:16:14;11.60;;;2.60;;
79365;SDS011;68833;53.160;17.920;2024-01-27T00:18:41;10.40;;;1.70;;
79365;SDS011;68833;53.160;17.920;2024-01-27T00:21:13;6.60;;;2.00;;
79365;SDS011;68833;53.160;17.920;2024-01-27T00:23:40;7.50;;;2.50;;
79365;SDS011;68833;53.160;17.920;2024-01-27T00:26:07;3.20;;;1.30;;
79365;SDS011;68833;53.160;17.920;2024-01-27T00:28:35;9.50;;;2.10;;
79365;SDS011;68833;53.160;17.920;2024-01-27T00:31:02;13.00;;;2.10;;
79365;SDS011;68833;53.160;17.920;2024-01-27T00:33:29;4.70;;;1.00;;
79365;SDS011;68833;53.160;17.920;2024-01-27T00:35:55;6.60;;;1.90;;
79365;SDS011;68833;53.160;17.920;2024-01-27T00:38:41;5.50;;;1.40;;
79365;SDS011;68833;53.160;17.920;2024-01-27T00:41:19;10.00;;;1.80;;
79365;SDS011;68833;53.160;17.920;2024-01-27T00:43:50;10.60;;;2.40;;
79365;SDS011;68833;53.160;17.920;2024-01-27T00:46:18;12.90;;;2.60;;
79365;SDS011;68833;53.160;17.920;2024-01-27T00:48:55;6.10;;;1.10;;
79365;SDS011;68833;53.160;17.920;2024-01-27T00:53:54;5.10;;;1.30;;
79365;SDS011;68833;53.160;17.920;2024-01-27T00:56:24;11.80;;;2.30;;
79365;SDS011;68833;53.160;17.920;2024-01-27T00:58:52;10.30;;;2.10;;
79365;SDS011;68833;53.160;17.920;2024-01-27T01:04:24;9.30;;;2.20;;
79365;SDS011;68833;53.160;17.920;2024-01-27T01:06:57;7.60;;;1.90;;
79365;SDS011;68833;53.160;17.920;2024-01-27T01:09:33;4.90;;;1.70;;
79365;SDS011;68833;53.160;17.920;2024-01-27T01:12:03;8.00;;;1.80;;
79365;SDS011;68833;53.160;17.920;2024-01-27T01:14:41;11.80;;;2.40;;
79365;SDS011;68833;53.160;17.920;2024-01-27T01:17:31;13.30;;;3.00;;
79365;SDS011;68833;53.160;17.920;2024-01-27T01:20:06;7.00;;;1.40;;
79365;SDS011;68833;53.160;17.920;2024-01-27T01:22:36;7.00;;;1.30;;
79365;SDS011;68833;53.160;17.920;2024-01-27T01:25:06;11.30;;;2.00;;
79365;SDS011;68833;53.160;17.920;2024-01-27T01:27:42;10.00;;;3.20;;
79365;SDS011;68833;53.160;17.920;2024-01-27T01:30:10;8.10;;;2.20;;
79365;SDS011;68833;53.160;17.920;2024-01-27T01:32:57;5.30;;;1.50;;
79365;SDS011;68833;53.160;17.920;2024-01-27T01:35:26;5.90;;;1.20;;
79365;SDS011;68833;53.160;17.920;2024-01-27T01:37:59;9.30;;;1.90;;
79365;SDS011;68833;53.160;17.920;2024-01-27T01:40:27;6.60;;;1.30;;
79365;SDS011;68833;53.160;17.920;2024-01-27T01:42:58;9.20;;;2.10;;
79365;SDS011;68833;53.160;17.920;2024-01-27T01:45:26;8.20;;;2.80;;
79365;SDS011;68833;53.160;17.920;2024-01-27T01:47:57;6.80;;;1.70;;
79365;SDS011;68833;53.160;17.920;2024-01-27T01:50:25;4.30;;;1.30;;
79365;SDS011;68833;53.160;17.920;2024-01-27T01:53:01;7.80;;;1.80;;
79365;SDS011;68833;53.160;17.920;2024-01-27T01:55:49;14.40;;;2.20;;
79365;SDS011;68833;53.160;17.920;2024-01-27T01:58:38;16.80;;;3.40;;
79365;SDS011;68833;53.160;17.920;2024-01-27T02:10:18;7.40;;;1.60;;
79365;SDS011;68833;53.160;17.920;2024-01-27T02:13:18;11.10;;;2.30;;
79365;SDS011;68833;53.160;17.920;2024-01-27T02:16:09;12.10;;;2.50;;
79365;SDS011;68833;53.160;17.920;2024-01-27T02:18:48;9.10;;;1.80;;
79365;SDS011;68833;53.160;17.920;2024-01-27T02:21:15;9.20;;;2.50;;
79365;SDS011;68833;53.160;17.920;2024-01-27T02:23:43;5.90;;;1.40;;
79365;SDS011;68833;53.160;17.920;2024-01-27T02:28:40;6.70;;;1.40;;
79365;SDS011;68833;53.160;17.920;2024-01-27T02:31:10;5.40;;;2.00;;
79365;SDS011;68833;53.160;17.920;2024-01-27T02:33:54;9.70;;;1.80;;
79365;SDS011;68833;53.160;17.920;2024-01-27T02:36:22;4.70;;;1.90;;
79365;SDS011;68833;53.160;17.920;2024-01-27T02:39:14;13.50;;;2.20;;
79365;SDS011;68833;53.160;17.920;2024-01-27T02:50:52;7.40;;;1.80;;
79365;SDS011;68833;53.160;17.920;2024-01-27T02:53:24;7.30;;;1.90;;
79365;SDS011;68833;53.160;17.920;2024-01-27T02:55:54;5.40;;;1.10;;
79365;SDS011;68833;53.160;17.920;2024-01-27T02:58:47;6.90;;;2.20;;
79365;SDS011;68833;53.160;17.920;2024-01-27T03:01:38;5.60;;;1.80;;
79365;SDS011;68833;53.160;17.920;2024-01-27T03:04:14;14.20;;;3.80;;
79365;SDS011;68833;53.160;17.920;2024-01-27T03:06:45;8.80;;;1.90;;
79365;SDS011;68833;53.160;17.920;2024-01-27T03:09:18;9.20;;;2.10;;
79365;SDS011;68833;53.160;17.920;2024-01-27T03:11:50;8.30;;;1.90;;
79365;SDS011;68833;53.160;17.920;2024-01-27T03:14:19;11.30;;;2.60;;
79365;SDS011;68833;53.160;17.920;2024-01-27T03:17:02;11.70;;;2.70;;
79365;SDS011;68833;53.160;17.920;2024-01-27T03:19:43;7.60;;;2.80;;
79365;SDS011;68833;53.160;17.920;2024-01-27T03:25:12;6.70;;;1.80;;
79365;SDS011;68833;53.160;17.920;2024-01-27T03:31:18;11.50;;;2.30;;
79365;SDS011;68833;53.160;17.920;2024-01-27T03:34:07;9.30;;;2.00;;
79365;SDS011;68833;53.160;17.920;2024-01-27T03:37:09;7.00;;;1.70;;
79365;SDS011;68833;53.160;17.920;2024-01-27T03:39:35;8.00;;;2.20;;
79365;SDS011;68833;53.160;17.920;2024-01-27T03:42:12;5.50;;;1.60;;
79365;SDS011;68833;53.160;17.920;2024-01-27T03:45:14;6.00;;;1.60;;
79365;SDS011;68833;53.160;17.920;2024-01-27T03:48:09;6.20;;;1.80;;
79365;SDS011;68833;53.160;17.920;2024-01-27T03:50:43;15.20;;;2.80;;
79365;SDS011;68833;53.160;17.920;2024-01-27T03:53:13;15.70;;;2.20;;
79365;SDS011;68833;53.160;17.920;2024-01-27T03:56:12;7.40;;;1.70;;
79365;SDS011;68833;53.160;17.920;2024-01-27T03:58:44;5.20;;;1.30;;
79365;SDS011;68833;53.160;17.920;2024-01-27T04:01:36;5.60;;;1.30;;
79365;SDS011;68833;53.160;17.920;2024-01-27T04:04:16;12.00;;;2.10;;
79365;SDS011;68833;53.160;17.920;2024-01-27T04:06:52;9.20;;;2.60;;
79365;SDS011;68833;53.160;17.920;2024-01-27T04:09:30;7.90;;;1.90;;
79365;SDS011;68833;53.160;17.920;2024-01-27T04:12:06;12.30;;;2.10;;
79365;SDS011;68833;53.160;17.920;2024-01-27T04:15:02;5.80;;;1.70;;
79365;SDS011;68833;53.160;17.920;2024-01-27T04:17:35;4.60;;;1.50;;
79365;SDS011;68833;53.160;17.920;2024-01-27T04:20:18;3.50;;;0.90;;
79365;SDS011;68833;53.160;17.920;2024-01-27T04:23:04;8.80;;;1.90;;
79365;SDS011;68833;53.160;17.920;2024-01-27T04:26:10;9.10;;;1.70;;
79365;SDS011;68833;53.160;17.920;2024-01-27T04:28:40;5.10;;;1.10;;
79365;SDS011;68833;53.160;17.920;2024-01-27T04:31:16;4.70;;;1.30;;
79365;SDS011;68833;53.160;17.920;2024-01-27T04:33:49;3.10;;;1.00;;
79365;SDS011;68833;53.160;17.920;2024-01-27T04:36:26;9.00;;;2.40;;
79365;SDS011;68833;53.160;17.920;2024-01-27T04:39:04;6.40;;;1.40;;
79365;SDS011;68833;53.160;17.920;2024-01-27T04:41:32;7.00;;;2.10;;
79365;SDS011;68833;53.160;17.920;2024-01-27T04:44:21;7.60;;;1.80;;
79365;SDS011;68833;53.160;17.920;2024-01-27T04:47:15;5.20;;;2.00;;
79365;SDS011;68833;53.160;17.920;2024-01-27T04:50:02;5.00;;;1.00;;
79365;SDS011;68833;53.160;17.920;2024-01-27T04:52:41;9.70;;;1.80;;
79365;SDS011;68833;53.160;17.920;2024-01-27T04:55:16;7.80;;;1.70;;
79365;SDS011;68833;53.160;17.920;2024-01-27T04:57:44;11.20;;;1.70;;
79365;SDS011;68833;53.160;17.920;2024-01-27T05:00:33;8.70;;;1.60;;
79365;SDS011;68833;53.160;17.920;2024-01-27T05:03:03;4.60;;;1.30;;
79365;SDS011;68833;53.160;17.920;2024-01-27T05:05:40;6.20;;;1.70;;
79365;SDS011;68833;53.160;17.920;2024-01-27T05:08:07;10.90;;;2.20;;
79365;SDS011;68833;53.160;17.920;2024-01-27T05:10:36;6.80;;;1.20;;
79365;SDS011;68833;53.160;17.920;2024-01-27T05:13:18;5.60;;;1.90;;
79365;SDS011;68833;53.160;17.920;2024-01-27T05:15:45;9.00;;;1.90;;
79365;SDS011;68833;53.160;17.920;2024-01-27T05:18:23;4.90;;;0.90;;
79365;SDS011;68833;53.160;17.920;2024-01-27T05:21:11;4.00;;;1.80;;
79365;SDS011;68833;53.160;17.920;2024-01-27T05:23:38;8.10;;;1.40;;
79365;SDS011;68833;53.160;17.920;2024-01-27T05:34:02;5.30;;;2.00;;
79365;SDS011;68833;53.160;17.920;2024-01-27T05:36:30;10.30;;;3.10;;
79365;SDS011;68833;53.160;17.920;2024-01-27T05:38:57;4.60;;;2.00;;
79365;SDS011;68833;53.160;17.920;2024-01-27T05:41:26;14.10;;;2.80;;
79365;SDS011;68833;53.160;17.920;2024-01-27T05:43:56;3.80;;;1.60;;
79365;SDS011;68833;53.160;17.920;2024-01-27T05:46:24;11.40;;;2.30;;
79365;SDS011;68833;53.160;17.920;2024-01-27T05:48:52;8.10;;;1.70;;
79365;SDS011;68833;53.160;17.920;2024-01-27T05:51:39;4.90;;;1.20;;
79365;SDS011;68833;53.160;17.920;2024-01-27T05:54:07;6.20;;;2.20;;
79365;SDS011;68833;53.160;17.920;2024-01-27T05:56:39;11.20;;;1.90;;
79365;SDS011;68833;53.160;17.920;2024-01-27T05:59:11;8.90;;;2.00;;
79365;SDS011;68833;53.160;17.920;2024-01-27T06:01:41;15.00;;;3.50;;
79365;SDS011;68833;53.160;17.920;2024-01-27T06:04:11;10.10;;;2.20;;
79365;SDS011;68833;53.160;17.920;2024-01-27T06:06:42;5.80;;;2.00;;
79365;SDS011;68833;53.160;17.920;2024-01-27T06:09:09;13.90;;;2.50;;
79365;SDS011;68833;53.160;17.920;2024-01-27T06:11:37;4.30;;;1.90;;
79365;SDS011;68833;53.160;17.920;2024-01-27T06:14:05;6.50;;;1.60;;
79365;SDS011;68833;53.160;17.920;2024-01-27T06:16:36;6.30;;;1.90;;
79365;SDS011;68833;53.160;17.920;2024-01-27T06:19:07;2.70;;;1.00;;
79365;SDS011;68833;53.160;17.920;2024-01-27T06:21:41;4.10;;;1.10;;
79365;SDS011;68833;53.160;17.920;2024-01-27T06:24:08;3.30;;;1.40;;
79365;SDS011;68833;53.160;17.920;2024-01-27T06:26:38;7.50;;;1.30;;
79365;SDS011;68833;53.160;17.920;2024-01-27T06:29:05;6.60;;;1.60;;
79365;SDS011;68833;53.160;17.920;2024-01-27T06:31:38;2.80;;;0.80;;
79365;SDS011;68833;53.160;17.920;2024-01-27T06:34:08;3.70;;;1.40;;
79365;SDS011;68833;53.160;17.920;2024-01-27T06:36:38;2.80;;;1.30;;
79365;SDS011;68833;53.160;17.920;2024-01-27T06:39:05;5.20;;;1.50;;
79365;SDS011;68833;53.160;17.920;2024-01-27T06:41:34;5.20;;;1.60;;
79365;SDS011;68833;53.160;17.920;2024-01-27T06:44:01;5.50;;;1.20;;
79365;SDS011;68833;53.160;17.920;2024-01-27T06:46:29;3.30;;;1.10;;
79365;SDS011;68833;53.160;17.920;2024-01-27T06:49:05;2.60;;;0.90;;
79365;SDS011;68833;53.160;17.920;2024-01-27T06:51:32;3.90;;;1.20;;
79365;SDS011;68833;53.160;17.920;2024-01-27T06:54:02;6.60;;;1.80;;
79365;SDS011;68833;53.160;17.920;2024-01-27T06:56:29;2.20;;;1.10;;
79365;SDS011;68833;53.160;17.920;2024-01-27T06:59:04;6.30;;;1.30;;
79365;SDS011;68833;53.160;17.920;2024-01-27T07:01:31;3.90;;;1.20;;
79365;SDS011;68833;53.160;17.920;2024-01-27T07:03:58;8.00;;;1.80;;
79365;SDS011;68833;53.160;17.920;2024-01-27T07:06:34;1.70;;;0.70;;
79365;SDS011;68833;53.160;17.920;2024-01-27T07:09:01;3.00;;;1.50;;
79365;SDS011;68833;53.160;17.920;2024-01-27T07:11:29;2.40;;;0.90;;
79365;SDS011;68833;53.160;17.920;2024-01-27T07:14:02;3.00;;;1.00;;
79365;SDS011;68833;53.160;17.920;2024-01-27T07:16:35;3.10;;;1.00;;
79365;SDS011;68833;53.160;17.920;2024-01-27T07:19:03;5.40;;;1.10;;
79365;SDS011;68833;53.160;17.920;2024-01-27T07:21:30;2.60;;;0.80;;
79365;SDS011;68833;53.160;17.920;2024-01-27T07:24:03;5.50;;;1.10;;
79365;SDS011;68833;53.160;17.920;2024-01-27T07:26:35;3.40;;;1.10;;
79365;SDS011;68833;53.160;17.920;2024-01-27T07:29:04;2.70;;;0.80;;
79365;SDS011;68833;53.160;17.920;2024-01-27T07:31:37;3.60;;;1.20;;
79365;SDS011;68833;53.160;17.920;2024-01-27T07:34:09;3.10;;;1.20;;
79365;SDS011;68833;53.160;17.920;2024-01-27T07:36:36;1.70;;;1.20;;
79365;SDS011;68833;53.160;17.920;2024-01-27T07:39:10;4.20;;;1.40;;
79365;SDS011;68833;53.160;17.920;2024-01-27T07:41:40;1.80;;;0.90;;
79365;SDS011;68833;53.160;17.920;2024-01-27T07:44:18;3.40;;;1.10;;
79365;SDS011;68833;53.160;17.920;2024-01-27T07:46:45;2.60;;;0.80;;
79365;SDS011;68833;53.160;17.920;2024-01-27T07:49:15;1.50;;;0.90;;
79365;SDS011;68833;53.160;17.920;2024-01-27T07:51:42;1.50;;;0.60;;
79365;SDS011;68833;53.160;17.920;2024-01-27T07:54:18;4.00;;;0.70;;
79365;SDS011;68833;53.160;17.920;2024-01-27T07:56:45;3.50;;;1.60;;
79365;SDS011;68833;53.160;17.920;2024-01-27T07:59:14;2.30;;;0.90;;
79365;SDS011;68833;53.160;17.920;2024-01-27T08:01:49;1.60;;;0.60;;
79365;SDS011;68833;53.160;17.920;2024-01-27T08:04:27;3.50;;;1.10;;
79365;SDS011;68833;53.160;17.920;2024-01-27T08:07:04;2.40;;;0.90;;
79365;SDS011;68833;53.160;17.920;2024-01-27T08:09:36;3.70;;;1.10;;
79365;SDS011;68833;53.160;17.920;2024-01-27T08:12:09;2.60;;;1.70;;
79365;SDS011;68833;53.160;17.920;2024-01-27T08:14:36;12.10;;;6.50;;
79365;SDS011;68833;53.160;17.920;2024-01-27T08:17:03;10.30;;;4.70;;
79365;SDS011;68833;53.160;17.920;2024-01-27T08:19:33;5.60;;;3.20;;
79365;SDS011;68833;53.160;17.920;2024-01-27T08:22:00;4.60;;;2.20;;
79365;SDS011;68833;53.160;17.920;2024-01-27T08:24:30;9.50;;;4.00;;
79365;SDS011;68833;53.160;17.920;2024-01-27T08:26:58;8.30;;;5.70;;
79365;SDS011;68833;53.160;17.920;2024-01-27T08:29:34;8.60;;;3.50;;
79365;SDS011;68833;53.160;17.920;2024-01-27T08:32:02;6.30;;;3.90;;
79365;SDS011;68833;53.160;17.920;2024-01-27T08:34:29;2.40;;;1.50;;
79365;SDS011;68833;53.160;17.920;2024-01-27T08:37:01;2.90;;;1.80;;
79365;SDS011;68833;53.160;17.920;2024-01-27T08:39:36;6.70;;;2.70;;
79365;SDS011;68833;53.160;17.920;2024-01-27T08:42:23;7.70;;;2.40;;
79365;SDS011;68833;53.160;17.920;2024-01-27T08:44:50;4.40;;;2.80;;
79365;SDS011;68833;53.160;17.920;2024-01-27T08:47:17;8.80;;;3.10;;
79365;SDS011;68833;53.160;17.920;2024-01-27T08:49:44;5.20;;;2.70;;
79365;SDS011;68833;53.160;17.920;2024-01-27T08:52:13;3.80;;;1.40;;
79365;SDS011;68833;53.160;17.920;2024-01-27T08:54:40;9.10;;;2.20;;
79365;SDS011;68833;53.160;17.920;2024-01-27T08:57:10;6.00;;;3.30;;
79365;SDS011;68833;53.160;17.920;2024-01-27T09:02:07;5.20;;;1.80;;
79365;SDS011;68833;53.160;17.920;2024-01-27T09:04:34;4.70;;;2.10;;
79365;SDS011;68833;53.160;17.920;2024-01-27T09:07:01;6.00;;;3.40;;
79365;SDS011;68833;53.160;17.920;2024-01-27T09:09:39;8.40;;;5.20;;
79365;SDS011;68833;53.160;17.920;2024-01-27T09:15:22;25.60;;;11.20;;
79365;SDS011;68833;53.160;17.920;2024-01-27T09:17:49;15.10;;;5.80;;
79365;SDS011;68833;53.160;17.920;2024-01-27T09:20:16;17.40;;;9.10;;
79365;SDS011;68833;53.160;17.920;2024-01-27T09:22:43;11.70;;;7.00;;
79365;SDS011;68833;53.160;17.920;2024-01-27T09:25:11;10.60;;;6.90;;
79365;SDS011;68833;53.160;17.920;2024-01-27T09:27:45;19.30;;;9.50;;
79365;SDS011;68833;53.160;17.920;2024-01-27T09:30:13;19.70;;;7.90;;
79365;SDS011;68833;53.160;17.920;2024-01-27T09:32:43;10.80;;;5.30;;
79365;SDS011;68833;53.160;17.920;2024-01-27T09:35:10;11.00;;;5.90;;
79365;SDS011;68833;53.160;17.920;2024-01-27T09:37:42;10.60;;;2.60;;
79365;SDS011;68833;53.160;17.920;2024-01-27T09:40:14;6.00;;;2.80;;
79365;SDS011;68833;53.160;17.920;2024-01-27T09:42:42;6.60;;;3.10;;
79365;SDS011;68833;53.160;17.920;2024-01-27T09:45:22;9.00;;;2.50;;
79365;SDS011;68833;53.160;17.920;2024-01-27T09:47:53;10.50;;;3.20;;
79365;SDS011;68833;53.160;17.920;2024-01-27T09:50:30;13.20;;;4.70;;
79365;SDS011;68833;53.160;17.920;2024-01-27T09:53:03;7.60;;;3.20;;
79365;SDS011;68833;53.160;17.920;2024-01-27T09:55:37;6.70;;;3.80;;
79365;SDS011;68833;53.160;17.920;2024-01-27T09:58:09;11.50;;;3.60;;
79365;SDS011;68833;53.160;17.920;2024-01-27T10:00:39;6.80;;;2.80;;
79365;SDS011;68833;53.160;17.920;2024-01-27T10:03:06;16.10;;;5.20;;
79365;SDS011;68833;53.160;17.920;2024-01-27T10:05:35;13.20;;;5.90;;
79365;SDS011;68833;53.160;17.920;2024-01-27T10:08:06;7.60;;;2.80;;
79365;SDS011;68833;53.160;17.920;2024-01-27T10:10:39;9.60;;;3.30;;
79365;SDS011;68833;53.160;17.920;2024-01-27T10:13:08;7.90;;;2.40;;
79365;SDS011;68833;53.160;17.920;2024-01-27T10:15:39;15.60;;;3.40;;
79365;SDS011;68833;53.160;17.920;2024-01-27T10:18:07;8.50;;;2.50;;
79365;SDS011;68833;53.160;17.920;2024-01-27T10:20:39;6.60;;;2.60;;
79365;SDS011;68833;53.160;17.920;2024-01-27T10:23:10;7.40;;;1.80;;
79365;SDS011;68833;53.160;17.920;2024-01-27T10:25:40;9.00;;;3.50;;
79365;SDS011;68833;53.160;17.920;2024-01-27T10:28:08;6.50;;;2.80;;
79365;SDS011;68833;53.160;17.920;2024-01-27T10:30:38;8.90;;;2.70;;
79365;SDS011;68833;53.160;17.920;2024-01-27T10:33:08;6.80;;;2.30;;
79365;SDS011;68833;53.160;17.920;2024-01-27T10:35:45;8.40;;;3.60;;
79365;SDS011;68833;53.160;17.920;2024-01-27T10:38:12;6.10;;;2.30;;
79365;SDS011;68833;53.160;17.920;2024-01-27T10:40:40;14.00;;;3.90;;
79365;SDS011;68833;53.160;17.920;2024-01-27T10:43:16;8.70;;;4.00;;
79365;SDS011;68833;53.160;17.920;2024-01-27T10:45:45;11.50;;;4.70;;
79365;SDS011;68833;53.160;17.920;2024-01-27T10:48:12;8.10;;;3.00;;
79365;SDS011;68833;53.160;17.920;2024-01-27T10:50:40;10.30;;;3.10;;
79365;SDS011;68833;53.160;17.920;2024-01-27T10:53:16;7.60;;;2.90;;
79365;SDS011;68833;53.160;17.920;2024-01-27T10:55:57;15.80;;;6.20;;
79365;SDS011;68833;53.160;17.920;2024-01-27T10:58:25;8.50;;;3.40;;
79365;SDS011;68833;53.160;17.920;2024-01-27T11:03:38;12.20;;;3.10;;
79365;SDS011;68833;53.160;17.920;2024-01-27T11:06:08;4.30;;;1.60;;
79365;SDS011;68833;53.160;17.920;2024-01-27T11:08:37;11.20;;;3.80;;
79365;SDS011;68833;53.160;17.920;2024-01-27T11:11:05;8.90;;;2.90;;
79365;SDS011;68833;53.160;17.920;2024-01-27T11:13:33;7.30;;;2.30;;
79365;SDS011;68833;53.160;17.920;2024-01-27T11:16:01;9.90;;;3.80;;
79365;SDS011;68833;53.160;17.920;2024-01-27T11:18:29;7.50;;;2.20;;
79365;SDS011;68833;53.160;17.920;2024-01-27T11:20:58;10.00;;;2.80;;
79365;SDS011;68833;53.160;17.920;2024-01-27T11:23:33;13.30;;;2.90;;
79365;SDS011;68833;53.160;17.920;2024-01-27T11:26:05;11.30;;;4.40;;
79365;SDS011;68833;53.160;17.920;2024-01-27T11:28:33;16.10;;;5.10;;
79365;SDS011;68833;53.160;17.920;2024-01-27T11:31:04;10.50;;;3.50;;
79365;SDS011;68833;53.160;17.920;2024-01-27T11:33:32;8.40;;;2.90;;
79365;SDS011;68833;53.160;17.920;2024-01-27T11:36:02;7.00;;;1.80;;
79365;SDS011;68833;53.160;17.920;2024-01-27T11:38:31;12.70;;;5.70;;
79365;SDS011;68833;53.160;17.920;2024-01-27T11:40:59;9.90;;;3.10;;
79365;SDS011;68833;53.160;17.920;2024-01-27T11:43:26;11.80;;;3.60;;
79365;SDS011;68833;53.160;17.920;2024-01-27T11:48:24;8.00;;;2.70;;
79365;SDS011;68833;53.160;17.920;2024-01-27T11:53:49;6.00;;;2.40;;
79365;SDS011;68833;53.160;17.920;2024-01-27T11:56:17;13.20;;;2.70;;
79365;SDS011;68833;53.160;17.920;2024-01-27T11:58:48;12.70;;;3.70;;
79365;SDS011;68833;53.160;17.920;2024-01-27T12:01:15;12.50;;;5.30;;
79365;SDS011;68833;53.160;17.920;2024-01-27T12:03:43;8.60;;;3.30;;
79365;SDS011;68833;53.160;17.920;2024-01-27T12:06:10;9.70;;;2.90;;
79365;SDS011;68833;53.160;17.920;2024-01-27T12:08:37;12.30;;;4.90;;
79365;SDS011;68833;53.160;17.920;2024-01-27T12:11:04;14.10;;;3.30;;
79365;SDS011;68833;53.160;17.920;2024-01-27T12:13:32;13.00;;;3.60;;
79365;SDS011;68833;53.160;17.920;2024-01-27T12:15:59;8.30;;;2.70;;
79365;SDS011;68833;53.160;17.920;2024-01-27T12:18:26;14.90;;;3.30;;
79365;SDS011;68833;53.160;17.920;2024-01-27T12:20:54;7.20;;;3.50;;
79365;SDS011;68833;53.160;17.920;2024-01-27T12:23:27;10.60;;;4.30;;
79365;SDS011;68833;53.160;17.920;2024-01-27T12:25:55;8.80;;;2.90;;
79365;SDS011;68833;53.160;17.920;2024-01-27T12:28:23;7.20;;;3.70;;
79365;SDS011;68833;53.160;17.920;2024-01-27T12:30:51;9.30;;;3.90;;
79365;SDS011;68833;53.160;17.920;2024-01-27T12:33:19;11.20;;;2.60;;
79365;SDS011;68833;53.160;17.920;2024-01-27T12:35:51;4.70;;;2.10;;
79365;SDS011;68833;53.160;17.920;2024-01-27T12:38:21;8.20;;;1.90;;
79365;SDS011;68833;53.160;17.920;2024-01-27T12:40:54;4.60;;;1.30;;
79365;SDS011;68833;53.160;17.920;2024-01-27T12:43:21;6.10;;;1.90;;
79365;SDS011;68833;53.160;17.920;2024-01-27T12:45:48;6.60;;;2.60;;
79365;SDS011;68833;53.160;17.920;2024-01-27T12:48:15;8.30;;;2.20;;
79365;SDS011;68833;53.160;17.920;2024-01-27T12:50:43;8.30;;;2.20;;
79365;SDS011;68833;53.160;17.920;2024-01-27T12:53:10;7.60;;;1.90;;
79365;SDS011;68833;53.160;17.920;2024-01-27T12:55:37;5.10;;;2.10;;
79365;SDS011;68833;53.160;17.920;2024-01-27T12:58:04;6.30;;;1.60;;
79365;SDS011;68833;53.160;17.920;2024-01-27T13:00:31;7.60;;;2.10;;
79365;SDS011;68833;53.160;17.920;2024-01-27T13:02:58;8.10;;;2.00;;
79365;SDS011;68833;53.160;17.920;2024-01-27T13:05:25;8.70;;;2.30;;
79365;SDS011;68833;53.160;17.920;2024-01-27T13:07:52;10.80;;;3.70;;
79365;SDS011;68833;53.160;17.920;2024-01-27T13:10:19;6.50;;;2.60;;
79365;SDS011;68833;53.160;17.920;2024-01-27T13:12:46;6.20;;;2.40;;
79365;SDS011;68833;53.160;17.920;2024-01-27T13:15:13;9.90;;;2.60;;
79365;SDS011;68833;53.160;17.920;2024-01-27T13:17:41;5.30;;;2.00;;
79365;SDS011;68833;53.160;17.920;2024-01-27T13:20:08;10.80;;;3.20;;
79365;SDS011;68833;53.160;17.920;2024-01-27T13:22:36;8.40;;;2.50;;
79365;SDS011;68833;53.160;17.920;2024-01-27T13:25:03;9.70;;;3.40;;
79365;SDS011;68833;53.160;17.920;2024-01-27T13:27:32;8.20;;;1.80;;
79365;SDS011;68833;53.160;17.920;2024-01-27T13:30:00;11.50;;;2.50;;
79365;SDS011;68833;53.160;17.920;2024-01-27T13:32:27;4.60;;;1.80;;
79365;SDS011;68833;53.160;17.920;2024-01-27T13:34:54;11.10;;;2.80;;
79365;SDS011;68833;53.160;17.920;2024-01-27T13:37:21;8.00;;;2.60;;
79365;SDS011;68833;53.160;17.920;2024-01-27T13:39:49;4.60;;;1.60;;
79365;SDS011;68833;53.160;17.920;2024-01-27T13:42:16;6.90;;;2.20;;
79365;SDS011;68833;53.160;17.920;2024-01-27T13:44:43;11.10;;;3.90;;
79365;SDS011;68833;53.160;17.920;2024-01-27T13:47:10;6.20;;;1.90;;
79365;SDS011;68833;53.160;17.920;2024-01-27T13:49:40;7.10;;;1.70;;
79365;SDS011;68833;53.160;17.920;2024-01-27T13:52:10;5.60;;;1.70;;
79365;SDS011;68833;53.160;17.920;2024-01-27T13:54:38;9.20;;;2.80;;
79365;SDS011;68833;53.160;17.920;2024-01-27T13:57:05;10.00;;;2.40;;
79365;SDS011;68833;53.160;17.920;2024-01-27T13:59:32;11.40;;;4.10;;
79365;SDS011;68833;53.160;17.920;2024-01-27T14:02:00;8.30;;;2.90;;
79365;SDS011;68833;53.160;17.920;2024-01-27T14:04:27;9.50;;;2.70;;
79365;SDS011;68833;53.160;17.920;2024-01-27T14:06:54;7.20;;;2.00;;
79365;SDS011;68833;53.160;17.920;2024-01-27T14:09:23;13.50;;;3.90;;
79365;SDS011;68833;53.160;17.920;2024-01-27T14:11:50;13.60;;;5.50;;
79365;SDS011;68833;53.160;17.920;2024-01-27T14:14:17;9.00;;;3.80;;
79365;SDS011;68833;53.160;17.920;2024-01-27T14:16:44;9.10;;;3.30;;
79365;SDS011;68833;53.160;17.920;2024-01-27T14:19:12;7.10;;;2.20;;
79365;SDS011;68833;53.160;17.920;2024-01-27T14:21:39;16.20;;;3.90;;
79365;SDS011;68833;53.160;17.920;2024-01-27T14:24:07;8.60;;;2.10;;
79365;SDS011;68833;53.160;17.920;2024-01-27T14:26:35;5.50;;;2.00;;
79365;SDS011;68833;53.160;17.920;2024-01-27T14:29:02;6.40;;;1.90;;
79365;SDS011;68833;53.160;17.920;2024-01-27T14:31:29;7.60;;;2.40;;
79365;SDS011;68833;53.160;17.920;2024-01-27T14:33:57;9.50;;;2.70;;
79365;SDS011;68833;53.160;17.920;2024-01-27T14:36:24;6.70;;;2.40;;
79365;SDS011;68833;53.160;17.920;2024-01-27T14:38:52;9.20;;;3.00;;
79365;SDS011;68833;53.160;17.920;2024-01-27T14:41:20;6.90;;;2.10;;
79365;SDS011;68833;53.160;17.920;2024-01-27T14:43:50;13.60;;;3.00;;
79365;SDS011;68833;53.160;17.920;2024-01-27T14:46:18;33.20;;;12.10;;
79365;SDS011;68833;53.160;17.920;2024-01-27T14:48:45;31.70;;;15.50;;
79365;SDS011;68833;53.160;17.920;2024-01-27T14:51:12;42.80;;;21.70;;
79365;SDS011;68833;53.160;17.920;2024-01-27T14:53:40;34.60;;;18.00;;
79365;SDS011;68833;53.160;17.920;2024-01-27T14:56:07;28.70;;;15.40;;
79365;SDS011;68833;53.160;17.920;2024-01-27T14:58:34;26.80;;;12.30;;
79365;SDS011;68833;53.160;17.920;2024-01-27T15:01:01;13.90;;;7.10;;
79365;SDS011;68833;53.160;17.920;2024-01-27T15:03:31;15.40;;;8.60;;
79365;SDS011;68833;53.160;17.920;2024-01-27T15:05:58;14.40;;;6.50;;
79365;SDS011;68833;53.160;17.920;2024-01-27T15:08:25;17.80;;;8.60;;
79365;SDS011;68833;53.160;17.920;2024-01-27T15:10:53;21.90;;;7.60;;
79365;SDS011;68833;53.160;17.920;2024-01-27T15:13:21;16.90;;;8.00;;
79365;SDS011;68833;53.160;17.920;2024-01-27T15:15:50;9.50;;;5.10;;
79365;SDS011;68833;53.160;17.920;2024-01-27T15:18:17;15.80;;;4.70;;
79365;SDS011;68833;53.160;17.920;2024-01-27T15:20:44;9.60;;;3.30;;
79365;SDS011;68833;53.160;17.920;2024-01-27T15:23:11;7.90;;;2.80;;
79365;SDS011;68833;53.160;17.920;2024-01-27T15:25:38;9.30;;;2.90;;
79365;SDS011;68833;53.160;17.920;2024-01-27T15:30:35;11.90;;;3.20;;
79365;SDS011;68833;53.160;17.920;2024-01-27T15:33:03;10.10;;;3.70;;
79365;SDS011;68833;53.160;17.920;2024-01-27T15:35:30;6.60;;;2.40;;
79365;SDS011;68833;53.160;17.920;2024-01-27T15:37:59;7.90;;;2.20;;
79365;SDS011;68833;53.160;17.920;2024-01-27T15:40:26;9.80;;;2.80;;
79365;SDS011;68833;53.160;17.920;2024-01-27T15:42:54;9.40;;;2.40;;
79365;SDS011;68833;53.160;17.920;2024-01-27T15:45:22;6.10;;;2.10;;
79365;SDS011;68833;53.160;17.920;2024-01-27T15:47:49;8.80;;;2.60;;
79365;SDS011;68833;53.160;17.920;2024-01-27T15:50:17;13.40;;;3.50;;
79365;SDS011;68833;53.160;17.920;2024-01-27T15:52:45;7.80;;;2.60;;